AirNav   Air Wisconsin pilot careers
 
 1686 users online  

88C Palmyra Municipal Airport
Palmyra, Wisconsin, USA

GOING TO PALMYRA?


FAA INFORMATION EFFECTIVE 16 AUGUST 2018

Location

FAA Identifier: 88C
Lat/Long: 42-53-00.7600N / 088-35-59.7000W
42-53.012667N / 088-35.995000W
42.8835444 / -88.5999167
(estimated)
Elevation: 851 ft. / 259.4 m (surveyed)
Variation: 01W (1985)
Time zone: UTC -5 (UTC -6 during Standard Time)
Zip code: 53156

Airport Operations

Airport use: Open to the public
Activation date: 05/1949
Control tower: no
ARTCC: CHICAGO CENTER
FSS: GREEN BAY FLIGHT SERVICE STATION
NOTAMs facility: GRB (NOTAM-D service available)
Attendance: UNATNDD
Wind indicator: lighted
Segmented circle: yes
Lights: ACTVT LIRL RY 09/27 - CTAF.

Airport Communications

CTAF: 122.9
WX AWOS-3PT at 57C (11 nm SE): 118.125 (262-642-1845)
WX AWOS-3 at BUU (17 nm SE): 114.5 (262-757-0907)
WX AWOS-3 at RYV (18 nm N): 119.975 (920-261-0734)
WX AWOS-3 at UES (19 nm NE): 118.875 (262-521-5226)

Nearby radio navigation aids

VOR radial/distance  VOR name  Freq  Var
BUUr313/17.6BURBUN VOR/DME114.5001W
BAEr223/19.7BADGER VOR/DME116.4002E
LJTr243/28.2TIMMERMAN VOR/DME112.5002W
JVLr046/29.6JANESVILLE VOR/DME114.3003E
MSNr113/36.0MADISON VORTAC108.6003E
BJBr214/(38.4)WEST BEND VOR109.8001W

 
NDB name  Hdg/Dist  Freq  Var  ID
LAKE LAWN000/11.140402WLVV .-.. ...- ...-
ROCK RIVER163/18.337101WRYV .-. -.-- ...-
JUNEAU173/33.034401WUNU ..- -. ..-

Airport Services

Parking: tiedowns
Airframe service: NONE
Powerplant service: NONE
Bottled oxygen: NONE
Bulk oxygen: NONE

Runway Information

Runway 9/27

Dimensions: 2800 x 200 ft. / 853 x 61 m
Surface: turf, in good condition
Runway edge lights: low intensity
Runway edge markings: RWY 09 /27 MKD BY YELLOW CONES.
RUNWAY 9  RUNWAY 27
Latitude: 42-53.008667N42-53.016667N
Longitude: 088-36.308333W088-35.681667W
Elevation: 849.0 ft.850.5 ft.
Gradient: 0.2%0.2%
Traffic pattern: leftleft
Runway heading: 090 magnetic, 089 true270 magnetic, 269 true
Runway end identifier lights: nono
Touchdown point: yes, no lightsyes, no lights
Obstructions: 20 ft. tree, 400 ft. from runway, 160 ft. left of centerline, 20:1 slope to clear35 ft. tree, 700 ft. from runway, 200 ft. left of centerline, 20:1 slope to clear

Airport Ownership and Management from official FAA records

Ownership: Publicly-owned
Owner: PALMYRA TOWNSHIP
P O BOX 163
PALMYRA, WI 53156
Phone 262-495-4342
Manager: CHRIS MUELLER
718 W WISCONSIN ST
PALMYRA, WI 53156
Phone (262) 903-6510

Airport Operational Statistics

Aircraft based on the field: 81
Single engine airplanes: 80
Helicopters: 1
    
Aircraft operations: avg 38/day *
57% local general aviation
43% transient general aviation
* for 12-month period ending 06 May 2016

Instrument Procedures

There are no published instrument procedures at 88C.

Some nearby airports with instrument procedures:

61C - Fort Atkinson Municipal Airport (11 nm NW)
57C - East Troy Municipal Airport (11 nm SE)
KBUU - Burlington Municipal Airport (17 nm SE)
KRYV - Watertown Municipal Airport (18 nm N)
KUES - Waukesha County Airport (19 nm NE)
C02 - Grand Geneva Resort Airport (19 nm SE)
 
Loc | Ops | Rwys | IFR | FBO | Links
Com | Nav | Svcs | Stats | Notes

General Mitchell International Airport
 
Area around 88C (Palmyra Municipal Airport)
 
Road maps at: MapQuest Bing Google
 
Aerial photo
WARNING: Photo may not be current or correct
Aerial photo of 88C (Palmyra Municipal Airport)
Photo by Dick Adduci
Photo taken 21-Apr-2012
looking northwest.

Do you have a better or more recent aerial photo of Palmyra Municipal Airport that you would like to share? If so, please send us your photo.

 
Sectional chart

 
Airport distance calculator
Flying to Palmyra Municipal Airport? Find the distance to fly.

From to 88C

Sunrise and sunset
Times for 21-Aug-2018
 Local
(UTC-5)
 Zulu
(UTC)
Morning civil twilight05:3810:38
Sunrise06:0811:08
Sunset19:4700:47
Evening civil twilight20:1701:17

Current date and time
Zulu (UTC)  21-Aug-2018 16:26:08
Local (UTC-5)  21-Aug-2018 11:26:08
 
METAR
K57C 
11nm SE 
211555Z AUTO 36010G17KT 10SM OVC017 21/18 A2988 RMK AO2 T02110183
KRYV 
18nm N 
211555Z AUTO 36010KT 10SM SCT015 BKN047 OVC110 21/19 A2991 RMK AO2 T02100194
KBUU 
18nm SE 
211555Z AUTO 35009G15KT 10SM SCT018 SCT044 SCT065 21/18 A2988 RMK AO2 T02060181
KUES 
22nm E 
211545Z 36014KT 10SM BKN019 BKN038 21/17 A2990
TAF
KUES 
22nm E 
211122Z 2112/2212 02012G20KT P6SM -SHRA SCT007 OVC022 FM211700 01012G21KT P6SM VCSH SCT025 BKN035 FM211900 36011G22KT P6SM BKN080 FM212300 35009KT P6SM VCSH BKN045 FM220300 35010G18KT P6SM BKN090
NOTAMs
Click for the latest NOTAMs
NOTAMs are issued by the DoD/FAA and will open in a separate window not controlled by AirNav.

 

 
 

Would you like to see your business listed on this page?

 If your business provides an interesting product or service to pilots, flight crews, aircraft, or users of the Palmyra Municipal Airport, you should consider listing it here.  To start the listing process, click on the button below
 
Add a business
 

Other Pages about Palmyra Municipal Airport

Page from the Wisconsin airport directory (PDF)
 
Update a link
 
Copyright © AirNav, LLC. All rights reserved. Privacy Policy  Contact